sensor_id;sensor_type;location;lat;lon;timestamp;pressure;altitude;pressure_sealevel;temperature;humidity
73860;BME280;62197;51.632;13.700;2023-05-27T00:01:28;101372.75;;;8.75;100.00
73860;BME280;62197;51.632;13.700;2023-05-27T00:03:53;101367.22;;;8.68;100.00
73860;BME280;62197;51.632;13.700;2023-05-27T00:06:18;101366.41;;;8.74;100.00
73860;BME280;62197;51.632;13.700;2023-05-27T00:08:44;101365.13;;;8.70;100.00
73860;BME280;62197;51.632;13.700;2023-05-27T00:11:09;101373.38;;;8.70;100.00
73860;BME280;62197;51.632;13.700;2023-05-27T00:13:34;101373.53;;;8.56;100.00
73860;BME280;62197;51.632;13.700;2023-05-27T00:15:59;101376.91;;;8.58;100.00
73860;BME280;62197;51.632;13.700;2023-05-27T00:18:25;101369.53;;;8.58;100.00
73860;BME280;62197;51.632;13.700;2023-05-27T00:20:50;101383.72;;;8.55;100.00
73860;BME280;62197;51.632;13.700;2023-05-27T00:23:16;101378.97;;;8.43;100.00
73860;BME280;62197;51.632;13.700;2023-05-27T00:25:41;101380.31;;;8.53;100.00
73860;BME280;62197;51.632;13.700;2023-05-27T00:28:06;101380.09;;;8.55;100.00
73860;BME280;62197;51.632;13.700;2023-05-27T00:30:32;101376.69;;;8.53;100.00
73860;BME280;62197;51.632;13.700;2023-05-27T00:32:57;101381.53;;;8.44;100.00
73860;BME280;62197;51.632;13.700;2023-05-27T00:35:23;101383.19;;;8.32;100.00
73860;BME280;62197;51.632;13.700;2023-05-27T00:37:48;101379.69;;;8.17;100.00
73860;BME280;62197;51.632;13.700;2023-05-27T00:40:14;101380.09;;;8.14;100.00
73860;BME280;62197;51.632;13.700;2023-05-27T00:42:39;101378.97;;;8.02;100.00
73860;BME280;62197;51.632;13.700;2023-05-27T00:45:05;101378.31;;;8.00;100.00
73860;BME280;62197;51.632;13.700;2023-05-27T00:47:31;101380.69;;;8.09;100.00
73860;BME280;62197;51.632;13.700;2023-05-27T00:49:57;101380.03;;;8.07;100.00
73860;BME280;62197;51.632;13.700;2023-05-27T00:52:23;101381.47;;;7.97;100.00
73860;BME280;62197;51.632;13.700;2023-05-27T00:54:48;101371.94;;;7.93;100.00
73860;BME280;62197;51.632;13.700;2023-05-27T00:57:14;101387.19;;;7.95;100.00
73860;BME280;62197;51.632;13.700;2023-05-27T00:59:39;101375.34;;;7.95;100.00
73860;BME280;62197;51.632;13.700;2023-05-27T01:02:05;101373.41;;;7.89;100.00
73860;BME280;62197;51.632;13.700;2023-05-27T01:04:30;101372.75;;;7.87;100.00
73860;BME280;62197;51.632;13.700;2023-05-27T01:07:03;101377.59;;;7.85;100.00
73860;BME280;62197;51.632;13.700;2023-05-27T01:09:45;101378.06;;;7.61;100.00
73860;BME280;62197;51.632;13.700;2023-05-27T01:12:18;101374.63;;;7.52;100.00
73860;BME280;62197;51.632;13.700;2023-05-27T01:14:48;101377.84;;;7.35;100.00
73860;BME280;62197;51.632;13.700;2023-05-27T01:17:15;101382.97;;;7.16;100.00
73860;BME280;62197;51.632;13.700;2023-05-27T01:19:42;101378.00;;;7.05;100.00
73860;BME280;62197;51.632;13.700;2023-05-27T01:22:11;101378.28;;;6.89;100.00
73860;BME280;62197;51.632;13.700;2023-05-27T01:24:37;101381.00;;;6.89;100.00
73860;BME280;62197;51.632;13.700;2023-05-27T01:27:02;101379.53;;;6.87;100.00
73860;BME280;62197;51.632;13.700;2023-05-27T01:29:29;101365.00;;;6.72;100.00
73860;BME280;62197;51.632;13.700;2023-05-27T01:32:18;101369.00;;;6.69;100.00
73860;BME280;62197;51.632;13.700;2023-05-27T01:37:32;101369.88;;;6.55;100.00
73860;BME280;62197;51.632;13.700;2023-05-27T01:39:58;101371.44;;;6.43;100.00
73860;BME280;62197;51.632;13.700;2023-05-27T01:42:24;101365.41;;;6.33;100.00
73860;BME280;62197;51.632;13.700;2023-05-27T01:44:50;101373.34;;;6.28;100.00
73860;BME280;62197;51.632;13.700;2023-05-27T01:47:16;101374.13;;;6.22;100.00
73860;BME280;62197;51.632;13.700;2023-05-27T01:49:42;101367.22;;;6.26;100.00
73860;BME280;62197;51.632;13.700;2023-05-27T01:52:07;101364.75;;;6.31;100.00
73860;BME280;62197;51.632;13.700;2023-05-27T01:54:34;101373.09;;;6.23;100.00
73860;BME280;62197;51.632;13.700;2023-05-27T01:56:59;101365.13;;;6.28;100.00
73860;BME280;62197;51.632;13.700;2023-05-27T01:59:24;101361.84;;;6.18;100.00
73860;BME280;62197;51.632;13.700;2023-05-27T02:01:50;101360.16;;;6.17;100.00
73860;BME280;62197;51.632;13.700;2023-05-27T02:04:17;101363.91;;;6.16;100.00
73860;BME280;62197;51.632;13.700;2023-05-27T02:06:42;101358.44;;;6.16;100.00
73860;BME280;62197;51.632;13.700;2023-05-27T02:09:07;101361.78;;;6.11;100.00
73860;BME280;62197;51.632;13.700;2023-05-27T02:11:33;101364.63;;;6.03;100.00
73860;BME280;62197;51.632;13.700;2023-05-27T02:13:58;101357.06;;;6.05;100.00
73860;BME280;62197;51.632;13.700;2023-05-27T02:16:25;101363.91;;;6.16;100.00
73860;BME280;62197;51.632;13.700;2023-05-27T02:18:50;101363.56;;;6.19;100.00
73860;BME280;62197;51.632;13.700;2023-05-27T02:21:15;101353.25;;;6.21;100.00
73860;BME280;62197;51.632;13.700;2023-05-27T02:23:41;101351.78;;;6.04;100.00
73860;BME280;62197;51.632;13.700;2023-05-27T02:26:06;101353.09;;;5.93;100.00
73860;BME280;62197;51.632;13.700;2023-05-27T02:28:32;101352.22;;;5.93;100.00
73860;BME280;62197;51.632;13.700;2023-05-27T02:30:57;101354.97;;;5.93;100.00
73860;BME280;62197;51.632;13.700;2023-05-27T02:33:23;101348.75;;;5.84;100.00
73860;BME280;62197;51.632;13.700;2023-05-27T02:35:48;101355.81;;;5.79;100.00
73860;BME280;62197;51.632;13.700;2023-05-27T02:38:14;101357.22;;;5.75;100.00
73860;BME280;62197;51.632;13.700;2023-05-27T02:40:39;101367.88;;;5.70;100.00
73860;BME280;62197;51.632;13.700;2023-05-27T02:43:05;101369.03;;;5.61;100.00
73860;BME280;62197;51.632;13.700;2023-05-27T02:45:30;101359.56;;;5.48;100.00
73860;BME280;62197;51.632;13.700;2023-05-27T02:47:55;101366.25;;;5.46;100.00
73860;BME280;62197;51.632;13.700;2023-05-27T02:50:21;101362.28;;;5.48;100.00
73860;BME280;62197;51.632;13.700;2023-05-27T02:52:47;101354.09;;;5.48;100.00
73860;BME280;62197;51.632;13.700;2023-05-27T02:55:12;101359.56;;;5.48;100.00
73860;BME280;62197;51.632;13.700;2023-05-27T02:57:37;101351.91;;;5.44;100.00
73860;BME280;62197;51.632;13.700;2023-05-27T03:00:03;101360.59;;;5.47;100.00
73860;BME280;62197;51.632;13.700;2023-05-27T03:02:29;101358.22;;;5.44;100.00
73860;BME280;62197;51.632;13.700;2023-05-27T03:04:54;101359.28;;;5.43;100.00
73860;BME280;62197;51.632;13.700;2023-05-27T03:07:20;101358.03;;;5.31;100.00
73860;BME280;62197;51.632;13.700;2023-05-27T03:09:46;101369.25;;;5.36;100.00
73860;BME280;62197;51.632;13.700;2023-05-27T03:12:11;101365.38;;;5.31;100.00
73860;BME280;62197;51.632;13.700;2023-05-27T03:14:36;101369.84;;;5.32;100.00
73860;BME280;62197;51.632;13.700;2023-05-27T03:17:02;101362.63;;;5.31;100.00
73860;BME280;62197;51.632;13.700;2023-05-27T03:19:27;101365.94;;;5.26;100.00
73860;BME280;62197;51.632;13.700;2023-05-27T03:21:52;101364.25;;;5.25;100.00
73860;BME280;62197;51.632;13.700;2023-05-27T03:24:18;101366.31;;;5.23;100.00
73860;BME280;62197;51.632;13.700;2023-05-27T03:26:43;101366.13;;;5.25;100.00
73860;BME280;62197;51.632;13.700;2023-05-27T03:29:08;101371.03;;;5.29;100.00
73860;BME280;62197;51.632;13.700;2023-05-27T03:31:34;101377.84;;;5.33;100.00
73860;BME280;62197;51.632;13.700;2023-05-27T03:33:59;101370.97;;;5.37;100.00
73860;BME280;62197;51.632;13.700;2023-05-27T03:36:24;101375.03;;;5.41;100.00
73860;BME280;62197;51.632;13.700;2023-05-27T03:38:50;101375.03;;;5.41;100.00
73860;BME280;62197;51.632;13.700;2023-05-27T03:41:15;101384.00;;;5.50;100.00
73860;BME280;62197;51.632;13.700;2023-05-27T03:43:41;101376.94;;;5.56;100.00
73860;BME280;62197;51.632;13.700;2023-05-27T03:46:06;101382.91;;;5.59;100.00
73860;BME280;62197;51.632;13.700;2023-05-27T03:48:32;101382.16;;;5.65;100.00
73860;BME280;62197;51.632;13.700;2023-05-27T03:50:57;101380.56;;;5.71;100.00
73860;BME280;62197;51.632;13.700;2023-05-27T03:53:23;101386.31;;;5.76;100.00
73860;BME280;62197;51.632;13.700;2023-05-27T03:55:48;101385.75;;;5.95;100.00
73860;BME280;62197;51.632;13.700;2023-05-27T03:58:13;101377.75;;;5.93;100.00
73860;BME280;62197;51.632;13.700;2023-05-27T04:00:40;101385.13;;;6.07;100.00
73860;BME280;62197;51.632;13.700;2023-05-27T04:03:06;101383.03;;;6.09;100.00
73860;BME280;62197;51.632;13.700;2023-05-27T04:05:32;101383.00;;;6.24;100.00
73860;BME280;62197;51.632;13.700;2023-05-27T04:07:57;101379.50;;;6.30;100.00
73860;BME280;62197;51.632;13.700;2023-05-27T04:10:23;101392.03;;;6.39;100.00
73860;BME280;62197;51.632;13.700;2023-05-27T04:12:48;101392.50;;;6.57;100.00
73860;BME280;62197;51.632;13.700;2023-05-27T04:15:13;101391.72;;;6.63;100.00
73860;BME280;62197;51.632;13.700;2023-05-27T04:17:39;101391.31;;;6.66;100.00
73860;BME280;62197;51.632;13.700;2023-05-27T04:20:05;101389.31;;;6.75;100.00
73860;BME280;62197;51.632;13.700;2023-05-27T04:22:40;101393.72;;;6.90;100.00
73860;BME280;62197;51.632;13.700;2023-05-27T04:25:06;101402.06;;;7.03;100.00
73860;BME280;62197;51.632;13.700;2023-05-27T04:27:32;101394.47;;;7.05;100.00
73860;BME280;62197;51.632;13.700;2023-05-27T04:29:57;101389.25;;;7.10;100.00
73860;BME280;62197;51.632;13.700;2023-05-27T04:32:24;101387.44;;;7.17;100.00
73860;BME280;62197;51.632;13.700;2023-05-27T04:34:50;101394.25;;;7.28;100.00
73860;BME280;62197;51.632;13.700;2023-05-27T04:37:15;101387.63;;;7.44;100.00
73860;BME280;62197;51.632;13.700;2023-05-27T04:39:42;101391.75;;;7.54;100.00
73860;BME280;62197;51.632;13.700;2023-05-27T04:42:10;101392.69;;;7.68;100.00
73860;BME280;62197;51.632;13.700;2023-05-27T04:44:37;101400.66;;;7.84;100.00
73860;BME280;62197;51.632;13.700;2023-05-27T04:47:04;101400.31;;;8.00;100.00
73860;BME280;62197;51.632;13.700;2023-05-27T04:49:29;101392.78;;;8.15;100.00
73860;BME280;62197;51.632;13.700;2023-05-27T04:51:55;101398.84;;;8.38;100.00
73860;BME280;62197;51.632;13.700;2023-05-27T04:54:20;101404.81;;;8.48;100.00
73860;BME280;62197;51.632;13.700;2023-05-27T04:56:46;101390.28;;;8.61;100.00
73860;BME280;62197;51.632;13.700;2023-05-27T04:59:12;101390.50;;;8.66;100.00
73860;BME280;62197;51.632;13.700;2023-05-27T05:01:42;101404.75;;;8.82;100.00
73860;BME280;62197;51.632;13.700;2023-05-27T05:04:26;101396.94;;;8.99;100.00
73860;BME280;62197;51.632;13.700;2023-05-27T05:06:51;101396.78;;;9.14;100.00
73860;BME280;62197;51.632;13.700;2023-05-27T05:09:17;101393.81;;;9.28;100.00
73860;BME280;62197;51.632;13.700;2023-05-27T05:11:42;101392.09;;;9.47;100.00
73860;BME280;62197;51.632;13.700;2023-05-27T05:14:07;101398.25;;;9.49;100.00
73860;BME280;62197;51.632;13.700;2023-05-27T05:16:33;101389.56;;;9.71;100.00
73860;BME280;62197;51.632;13.700;2023-05-27T05:18:58;101393.56;;;9.88;100.00
73860;BME280;62197;51.632;13.700;2023-05-27T05:21:23;101393.75;;;10.00;99.34
73860;BME280;62197;51.632;13.700;2023-05-27T05:23:49;101388.88;;;10.15;98.89
73860;BME280;62197;51.632;13.700;2023-05-27T05:26:14;101400.09;;;10.20;98.74
73860;BME280;62197;51.632;13.700;2023-05-27T05:28:39;101394.75;;;10.32;98.31
73860;BME280;62197;51.632;13.700;2023-05-27T05:31:04;101404.91;;;10.38;98.22
73860;BME280;62197;51.632;13.700;2023-05-27T05:33:30;101397.72;;;10.37;97.19
73860;BME280;62197;51.632;13.700;2023-05-27T05:35:55;101398.75;;;10.42;97.40
73860;BME280;62197;51.632;13.700;2023-05-27T05:38:21;101406.38;;;10.47;96.81
73860;BME280;62197;51.632;13.700;2023-05-27T05:40:46;101412.06;;;10.58;96.32
73860;BME280;62197;51.632;13.700;2023-05-27T05:43:15;101400.50;;;10.74;95.40
73860;BME280;62197;51.632;13.700;2023-05-27T05:45:40;101408.22;;;11.04;93.95
73860;BME280;62197;51.632;13.700;2023-05-27T05:48:05;101410.94;;;11.10;92.18
73860;BME280;62197;51.632;13.700;2023-05-27T05:50:30;101411.53;;;11.19;93.69
73860;BME280;62197;51.632;13.700;2023-05-27T05:52:56;101409.16;;;11.78;93.41
73860;BME280;62197;51.632;13.700;2023-05-27T05:55:21;101409.00;;;11.73;89.15
73860;BME280;62197;51.632;13.700;2023-05-27T05:57:46;101414.03;;;11.83;90.04
73860;BME280;62197;51.632;13.700;2023-05-27T06:00:12;101414.34;;;11.93;88.64
73860;BME280;62197;51.632;13.700;2023-05-27T06:02:38;101416.16;;;12.05;89.08
73860;BME280;62197;51.632;13.700;2023-05-27T06:05:03;101419.41;;;12.38;88.49
73860;BME280;62197;51.632;13.700;2023-05-27T06:07:28;101415.53;;;12.39;87.01
73860;BME280;62197;51.632;13.700;2023-05-27T06:09:54;101420.31;;;12.68;85.58
73860;BME280;62197;51.632;13.700;2023-05-27T06:12:19;101416.84;;;12.55;83.86
73860;BME280;62197;51.632;13.700;2023-05-27T06:14:44;101417.09;;;12.72;82.41
73860;BME280;62197;51.632;13.700;2023-05-27T06:17:10;101422.59;;;12.90;80.61
73860;BME280;62197;51.632;13.700;2023-05-27T06:19:35;101431.81;;;13.02;77.67
73860;BME280;62197;51.632;13.700;2023-05-27T06:22:02;101424.91;;;13.22;78.95
73860;BME280;62197;51.632;13.700;2023-05-27T06:24:27;101424.09;;;13.22;80.75
73860;BME280;62197;51.632;13.700;2023-05-27T06:26:52;101428.75;;;13.51;79.74
73860;BME280;62197;51.632;13.700;2023-05-27T06:29:18;101427.88;;;13.39;76.88
73860;BME280;62197;51.632;13.700;2023-05-27T06:31:43;101432.66;;;13.32;80.97
73860;BME280;62197;51.632;13.700;2023-05-27T06:34:08;101425.81;;;13.34;78.99
73860;BME280;62197;51.632;13.700;2023-05-27T06:36:34;101420.59;;;13.26;78.18
73860;BME280;62197;51.632;13.700;2023-05-27T06:39:00;101430.50;;;13.34;78.65
73860;BME280;62197;51.632;13.700;2023-05-27T06:41:26;101422.09;;;13.40;78.63
73860;BME280;62197;51.632;13.700;2023-05-27T06:43:51;101433.22;;;13.52;81.78
73860;BME280;62197;51.632;13.700;2023-05-27T06:46:16;101432.91;;;14.06;78.44
73860;BME280;62197;51.632;13.700;2023-05-27T06:48:42;101427.41;;;14.29;76.34
73860;BME280;62197;51.632;13.700;2023-05-27T06:51:08;101431.97;;;14.12;76.18
73860;BME280;62197;51.632;13.700;2023-05-27T06:53:33;101424.69;;;14.00;74.44
73860;BME280;62197;51.632;13.700;2023-05-27T06:55:59;101431.22;;;14.05;74.78
73860;BME280;62197;51.632;13.700;2023-05-27T06:58:24;101417.94;;;14.07;74.59
73860;BME280;62197;51.632;13.700;2023-05-27T07:00:49;101425.22;;;14.43;75.12
73860;BME280;62197;51.632;13.700;2023-05-27T07:03:15;101423.88;;;14.57;71.64
73860;BME280;62197;51.632;13.700;2023-05-27T07:05:40;101421.81;;;14.53;74.01
73860;BME280;62197;51.632;13.700;2023-05-27T07:08:05;101422.19;;;14.44;71.39
73860;BME280;62197;51.632;13.700;2023-05-27T07:10:31;101419.41;;;14.44;70.34
73860;BME280;62197;51.632;13.700;2023-05-27T07:12:56;101428.59;;;14.33;70.04
73860;BME280;62197;51.632;13.700;2023-05-27T07:15:22;101419.84;;;14.65;70.44
73860;BME280;62197;51.632;13.700;2023-05-27T07:17:47;101412.28;;;14.48;67.67
73860;BME280;62197;51.632;13.700;2023-05-27T07:20:12;101414.88;;;14.78;70.88
73860;BME280;62197;51.632;13.700;2023-05-27T07:22:38;101408.31;;;15.41;66.90
73860;BME280;62197;51.632;13.700;2023-05-27T07:25:03;101407.19;;;15.25;66.22
73860;BME280;62197;51.632;13.700;2023-05-27T07:27:29;101407.34;;;15.35;66.20
73860;BME280;62197;51.632;13.700;2023-05-27T07:29:54;101415.03;;;15.56;65.05
73860;BME280;62197;51.632;13.700;2023-05-27T07:32:19;101410.88;;;15.42;64.20
73860;BME280;62197;51.632;13.700;2023-05-27T07:34:45;101412.69;;;15.36;65.22
73860;BME280;62197;51.632;13.700;2023-05-27T07:37:10;101421.06;;;15.53;67.46
73860;BME280;62197;51.632;13.700;2023-05-27T07:39:35;101416.53;;;15.35;66.32
73860;BME280;62197;51.632;13.700;2023-05-27T07:42:01;101408.75;;;15.49;65.66
73860;BME280;62197;51.632;13.700;2023-05-27T07:44:26;101407.84;;;15.60;64.74
73860;BME280;62197;51.632;13.700;2023-05-27T07:46:53;101405.66;;;15.79;66.18
73860;BME280;62197;51.632;13.700;2023-05-27T07:49:18;101407.22;;;16.24;63.16
73860;BME280;62197;51.632;13.700;2023-05-27T07:51:43;101401.78;;;16.35;61.00
73860;BME280;62197;51.632;13.700;2023-05-27T07:54:09;101403.47;;;15.64;61.52
73860;BME280;62197;51.632;13.700;2023-05-27T07:56:34;101405.16;;;15.82;61.19
73860;BME280;62197;51.632;13.700;2023-05-27T07:59:00;101403.56;;;15.69;63.45
73860;BME280;62197;51.632;13.700;2023-05-27T08:01:25;101395.09;;;15.19;65.50
73860;BME280;62197;51.632;13.700;2023-05-27T08:03:55;101395.56;;;15.28;63.65
73860;BME280;62197;51.632;13.700;2023-05-27T08:06:21;101390.28;;;15.43;63.84
73860;BME280;62197;51.632;13.700;2023-05-27T08:08:46;101394.09;;;15.54;62.67
73860;BME280;62197;51.632;13.700;2023-05-27T08:11:12;101392.31;;;15.48;63.76
73860;BME280;62197;51.632;13.700;2023-05-27T08:13:38;101390.06;;;15.94;63.83
73860;BME280;62197;51.632;13.700;2023-05-27T08:16:03;101387.38;;;16.21;60.76
73860;BME280;62197;51.632;13.700;2023-05-27T08:18:28;101377.84;;;16.55;59.42
73860;BME280;62197;51.632;13.700;2023-05-27T08:20:54;101371.53;;;16.60;58.05
73860;BME280;62197;51.632;13.700;2023-05-27T08:23:19;101374.88;;;16.83;57.61
73860;BME280;62197;51.632;13.700;2023-05-27T08:25:44;101366.47;;;16.18;59.74
73860;BME280;62197;51.632;13.700;2023-05-27T08:28:10;101369.97;;;15.92;59.95
73860;BME280;62197;51.632;13.700;2023-05-27T08:30:36;101369.59;;;16.44;61.06
73860;BME280;62197;51.632;13.700;2023-05-27T08:33:02;101363.34;;;17.01;59.76
73860;BME280;62197;51.632;13.700;2023-05-27T08:35:27;101356.91;;;17.23;57.39
73860;BME280;62197;51.632;13.700;2023-05-27T08:37:53;101353.72;;;17.09;57.21
73860;BME280;62197;51.632;13.700;2023-05-27T08:40:19;101364.47;;;17.00;54.71
73860;BME280;62197;51.632;13.700;2023-05-27T08:42:46;101355.50;;;16.72;56.73
73860;BME280;62197;51.632;13.700;2023-05-27T08:45:11;101363.47;;;16.03;57.60
73860;BME280;62197;51.632;13.700;2023-05-27T08:47:40;101354.81;;;16.21;58.53
73860;BME280;62197;51.632;13.700;2023-05-27T08:50:06;101348.47;;;16.48;57.66
73860;BME280;62197;51.632;13.700;2023-05-27T08:52:32;101353.22;;;16.47;56.24
73860;BME280;62197;51.632;13.700;2023-05-27T08:54:58;101347.44;;;16.32;56.86
73860;BME280;62197;51.632;13.700;2023-05-27T08:57:29;101351.72;;;16.40;56.96
73860;BME280;62197;51.632;13.700;2023-05-27T08:59:55;101348.09;;;16.61;56.11
73860;BME280;62197;51.632;13.700;2023-05-27T09:02:21;101333.09;;;17.15;54.71
73860;BME280;62197;51.632;13.700;2023-05-27T09:04:47;101341.31;;;17.27;53.91
73860;BME280;62197;51.632;13.700;2023-05-27T09:07:12;101330.28;;;17.68;55.55
73860;BME280;62197;51.632;13.700;2023-05-27T09:09:38;101328.56;;;17.36;52.65
73860;BME280;62197;51.632;13.700;2023-05-27T09:12:05;101319.50;;;17.50;54.57
73860;BME280;62197;51.632;13.700;2023-05-27T09:14:31;101322.34;;;17.29;52.25
73860;BME280;62197;51.632;13.700;2023-05-27T09:17:04;101325.41;;;17.27;53.07
73860;BME280;62197;51.632;13.700;2023-05-27T09:19:30;101316.09;;;17.75;53.48
73860;BME280;62197;51.632;13.700;2023-05-27T09:21:55;101318.34;;;17.83;50.52
73860;BME280;62197;51.632;13.700;2023-05-27T09:24:24;101306.59;;;18.23;53.49
73860;BME280;62197;51.632;13.700;2023-05-27T09:26:51;101306.41;;;17.92;48.89
73860;BME280;62197;51.632;13.700;2023-05-27T09:29:18;101300.97;;;18.13;50.73
73860;BME280;62197;51.632;13.700;2023-05-27T09:31:43;101301.88;;;18.23;47.84
73860;BME280;62197;51.632;13.700;2023-05-27T09:34:14;101305.75;;;18.22;50.06
73860;BME280;62197;51.632;13.700;2023-05-27T09:36:53;101304.53;;;18.55;48.23
73860;BME280;62197;51.632;13.700;2023-05-27T09:39:19;101296.63;;;18.37;47.75
73860;BME280;62197;51.632;13.700;2023-05-27T09:41:50;101295.47;;;18.33;48.47
73860;BME280;62197;51.632;13.700;2023-05-27T09:44:17;101301.00;;;17.76;49.28
73860;BME280;62197;51.632;13.700;2023-05-27T09:46:44;101299.28;;;17.38;49.08
73860;BME280;62197;51.632;13.700;2023-05-27T09:49:10;101294.66;;;17.90;50.65
73860;BME280;62197;51.632;13.700;2023-05-27T09:51:38;101300.25;;;17.85;48.72
73860;BME280;62197;51.632;13.700;2023-05-27T09:54:06;101295.34;;;18.08;47.36
73860;BME280;62197;51.632;13.700;2023-05-27T09:56:31;101298.09;;;17.97;48.30
73860;BME280;62197;51.632;13.700;2023-05-27T09:58:57;101294.22;;;18.03;44.46
73860;BME280;62197;51.632;13.700;2023-05-27T10:01:27;101292.13;;;17.47;45.46
73860;BME280;62197;51.632;13.700;2023-05-27T10:03:55;101282.41;;;17.91;46.32
73860;BME280;62197;51.632;13.700;2023-05-27T10:06:24;101281.41;;;18.13;44.66
73860;BME280;62197;51.632;13.700;2023-05-27T10:08:50;101287.44;;;17.94;43.24
73860;BME280;62197;51.632;13.700;2023-05-27T10:11:18;101283.47;;;18.37;45.02
73860;BME280;62197;51.632;13.700;2023-05-27T10:13:44;101279.16;;;18.81;43.99
73860;BME280;62197;51.632;13.700;2023-05-27T10:16:18;101280.53;;;18.64;43.49
73860;BME280;62197;51.632;13.700;2023-05-27T10:18:44;101278.22;;;18.46;43.21
73860;BME280;62197;51.632;13.700;2023-05-27T10:21:18;101288.44;;;19.22;43.52
73860;BME280;62197;51.632;13.700;2023-05-27T10:24:01;101273.94;;;19.40;43.80
73860;BME280;62197;51.632;13.700;2023-05-27T10:26:36;101264.72;;;19.45;42.41
73860;BME280;62197;51.632;13.700;2023-05-27T10:29:06;101264.34;;;19.87;41.75
73860;BME280;62197;51.632;13.700;2023-05-27T10:31:33;101259.94;;;19.60;41.34
73860;BME280;62197;51.632;13.700;2023-05-27T10:33:58;101257.69;;;19.17;42.12
73860;BME280;62197;51.632;13.700;2023-05-27T10:36:27;101261.03;;;18.89;42.23
73860;BME280;62197;51.632;13.700;2023-05-27T10:39:04;101247.03;;;19.24;42.71
73860;BME280;62197;51.632;13.700;2023-05-27T10:41:40;101265.53;;;19.55;40.89
73860;BME280;62197;51.632;13.700;2023-05-27T10:44:06;101251.50;;;19.30;41.97
73860;BME280;62197;51.632;13.700;2023-05-27T10:46:42;101261.03;;;19.59;41.61
73860;BME280;62197;51.632;13.700;2023-05-27T10:49:22;101258.81;;;19.51;40.46
73860;BME280;62197;51.632;13.700;2023-05-27T10:51:48;101245.31;;;19.84;39.85
73860;BME280;62197;51.632;13.700;2023-05-27T10:54:15;101253.47;;;19.75;40.43
73860;BME280;62197;51.632;13.700;2023-05-27T10:56:50;101258.25;;;19.29;39.93
73860;BME280;62197;51.632;13.700;2023-05-27T10:59:21;101252.66;;;19.34;39.44
73860;BME280;62197;51.632;13.700;2023-05-27T11:01:51;101259.38;;;19.63;38.98
73860;BME280;62197;51.632;13.700;2023-05-27T11:04:18;101255.31;;;20.20;36.81
73860;BME280;62197;51.632;13.700;2023-05-27T11:06:59;101240.25;;;21.42;36.13
73860;BME280;62197;51.632;13.700;2023-05-27T11:09:27;101239.31;;;21.51;36.48
73860;BME280;62197;51.632;13.700;2023-05-27T11:11:56;101246.19;;;21.64;36.10
73860;BME280;62197;51.632;13.700;2023-05-27T11:14:23;101247.22;;;22.49;34.08
73860;BME280;62197;51.632;13.700;2023-05-27T11:16:48;101230.41;;;22.44;32.97
73860;BME280;62197;51.632;13.700;2023-05-27T11:19:20;101235.53;;;22.98;33.74
73860;BME280;62197;51.632;13.700;2023-05-27T11:21:46;101237.16;;;22.43;34.15
73860;BME280;62197;51.632;13.700;2023-05-27T11:24:15;101234.16;;;22.16;34.13
73860;BME280;62197;51.632;13.700;2023-05-27T11:26:42;101225.44;;;22.78;33.95
73860;BME280;62197;51.632;13.700;2023-05-27T11:29:08;101232.03;;;23.06;32.85
73860;BME280;62197;51.632;13.700;2023-05-27T11:31:34;101214.25;;;23.88;30.71
73860;BME280;62197;51.632;13.700;2023-05-27T11:34:00;101224.72;;;24.91;30.32
73860;BME280;62197;51.632;13.700;2023-05-27T11:36:27;101215.94;;;25.15;30.70
73860;BME280;62197;51.632;13.700;2023-05-27T11:38:53;101221.75;;;24.47;30.03
73860;BME280;62197;51.632;13.700;2023-05-27T11:41:20;101217.69;;;24.40;28.59
73860;BME280;62197;51.632;13.700;2023-05-27T11:44:01;101214.91;;;24.26;28.30
73860;BME280;62197;51.632;13.700;2023-05-27T11:46:41;101206.00;;;23.92;28.97
73860;BME280;62197;51.632;13.700;2023-05-27T11:49:09;101210.78;;;23.13;30.32
73860;BME280;62197;51.632;13.700;2023-05-27T11:51:37;101211.72;;;22.90;31.43
73860;BME280;62197;51.632;13.700;2023-05-27T11:54:02;101201.09;;;22.87;30.72
73860;BME280;62197;51.632;13.700;2023-05-27T11:56:28;101196.47;;;23.28;29.04
73860;BME280;62197;51.632;13.700;2023-05-27T11:58:55;101185.50;;;23.27;29.65
73860;BME280;62197;51.632;13.700;2023-05-27T12:01:20;101196.34;;;23.66;30.56
73860;BME280;62197;51.632;13.700;2023-05-27T12:03:46;101191.66;;;23.48;29.89
73860;BME280;62197;51.632;13.700;2023-05-27T12:06:11;101186.72;;;23.40;30.60
73860;BME280;62197;51.632;13.700;2023-05-27T12:08:37;101175.50;;;23.67;29.86
73860;BME280;62197;51.632;13.700;2023-05-27T12:11:03;101177.00;;;24.68;31.19
73860;BME280;62197;51.632;13.700;2023-05-27T12:13:29;101165.47;;;24.42;27.33
73860;BME280;62197;51.632;13.700;2023-05-27T12:15:55;101171.25;;;24.73;29.55
73860;BME280;62197;51.632;13.700;2023-05-27T12:18:20;101155.53;;;23.17;29.87
73860;BME280;62197;51.632;13.700;2023-05-27T12:20:45;101168.50;;;24.32;29.02
73860;BME280;62197;51.632;13.700;2023-05-27T12:23:11;101159.06;;;24.50;27.30
73860;BME280;62197;51.632;13.700;2023-05-27T12:25:37;101163.78;;;24.41;27.41
73860;BME280;62197;51.632;13.700;2023-05-27T12:28:02;101155.72;;;24.48;30.01
73860;BME280;62197;51.632;13.700;2023-05-27T12:30:28;101155.41;;;26.47;29.36
73860;BME280;62197;51.632;13.700;2023-05-27T12:32:53;101144.44;;;25.98;26.53
73860;BME280;62197;51.632;13.700;2023-05-27T12:35:19;101142.16;;;25.17;26.82
73860;BME280;62197;51.632;13.700;2023-05-27T12:37:45;101133.28;;;25.93;25.94
73860;BME280;62197;51.632;13.700;2023-05-27T12:40:10;101129.91;;;25.43;26.09